Terminal Aerodrome Forecast
Issued by NWS Charleston, WV

Current Version | Previous Version | Text Only | Print | Product List | Glossary Off
Versions: 1 2 3 4 5 6 7 8 9 10 11 12 13 14 15 16 17 18 19 20

353
FTUS41 KRLX 091503 AAA
TAFBKW
TAF AMD
KBKW 091503Z 0915/1012 28010G18KT 6SM -SHSN BR OVC015
      TEMPO 0915/0919 3SM -SHSN SCT008
     FM091900 28010G15KT 3SM -SHSN SCT008 OVC015
     FM100000 28011G19KT 2SM -SHSN OVC007=

USA.gov is the U.S. government's official web portal to all federal, state and local government web resources and services.